VAM | FAF

Virtual Airlines Manager! Gestion de la flotte et des vols FAFZone VA FrenchAirForce A new look to your va. By: Jonatha Silva




 METAR ET TAF INFORMATION
METAR FOR KVNC
ADDS - METARS form results

(0540 UTC 26 September 2022)
Data provider http://aviationweather.gov/metar/data/
 
METAR text: KVNC 260535Z AUTO 05008KT 9SM CLR 26/25 A2988 RMK AO2
Conditions at: KVNC (VENICE , FL, US) observed 0535 UTC 26 September 2022
Temperature: 26.0°C (79°F)
Dewpoint: 25.0°C (77°F) [RH = 94%]
Pressure (altimeter): 29.88 inches Hg (1011.9 mb)
Winds: from the NE (50 degrees) at 9 MPH (8 knots; 4.1 m/s)
Visibility: 9 miles (14 km)
Ceiling: at least 12,000 feet AGL
Clouds: sky clear below 12,000 feet AGL
Weather: automated observation with no human augmentation;
there may or may not be significant weather present at this time

METAR text: KVNC 260515Z AUTO 05007KT 9SM CLR 26/25 A2988 RMK AO2
Conditions at: KVNC (VENICE , FL, US) observed 0515 UTC 26 September 2022
Temperature: 26.0°C (79°F)
Dewpoint: 25.0°C (77°F) [RH = 94%]
Pressure (altimeter): 29.88 inches Hg (1011.9 mb)
Winds: from the NE (50 degrees) at 8 MPH (7 knots; 3.6 m/s)
Visibility: 9 miles (14 km)
Ceiling: at least 12,000 feet AGL
Clouds: sky clear below 12,000 feet AGL
Weather: automated observation with no human augmentation;
there may or may not be significant weather present at this time

METAR text: KVNC 260455Z AUTO 06008KT 10SM CLR 26/25 A2988 RMK AO2
Conditions at: KVNC (VENICE , FL, US) observed 0455 UTC 26 September 2022
Temperature: 26.0°C (79°F)
Dewpoint: 25.0°C (77°F) [RH = 94%]
Pressure (altimeter): 29.88 inches Hg (1011.9 mb)
Winds: from the ENE (60 degrees) at 9 MPH (8 knots; 4.1 m/s)
Visibility: 10 or more miles (16+ km)
Ceiling: at least 12,000 feet AGL
Clouds: sky clear below 12,000 feet AGL
Weather: automated observation with no human augmentation;
there may or may not be significant weather present at this time

 AÉROPORT DE AÉROPORT

 INFORMATIONS DE PISTE
Piste 04 Longueur de la piste 5000 ft Largeur de la piste 150 ft
Élévation de la piste 12 ft Seuil de la piste déplacés 0 ft Runway heading 45
Piste 22 Longueur de la piste 5000 ft Largeur de la piste 150 ft
Élévation de la piste 18 ft Seuil de la piste déplacés 294 ft Runway heading 225
Piste 09 Longueur de la piste 5000 ft Largeur de la piste 150 ft
Élévation de la piste 17 ft Seuil de la piste déplacés 0 ft Runway heading 88
Piste 27 Longueur de la piste 5000 ft Largeur de la piste 150 ft
Élévation de la piste 19 ft Seuil de la piste déplacés 0 ft Runway heading 268
Piste 13 Longueur de la piste 4999 ft Largeur de la piste 150 ft
Élévation de la piste 15 ft Seuil de la piste déplacés 0 ft Runway heading 135
Piste 31 Longueur de la piste 4999 ft Largeur de la piste 150 ft
Élévation de la piste 16 ft Seuil de la piste déplacés 0 ft Runway heading 315

 AÉROPORT FRÉQUENCES
Type A/D Nom TAMPA APP/ Féquence 119.65 MHZ
Type AWOS Nom AWOS 1 Féquence 119.275 MHZ
Type CLD Nom TAMPA CLNC Féquence 118.075 MHZ
Type UNIC Nom CTAF/UNICO Féquence 122.7 MHZ

 SIDA DE NAVIGATION